sensor_id;sensor_type;location;lat;lon;timestamp;temperature;humidity
40528;DHT22;26230;51.268;6.534;2023-12-22T00:00:07;6.9;100
40528;DHT22;26230;51.268;6.534;2023-12-22T00:10:09;6.8;100
40528;DHT22;26230;51.268;6.534;2023-12-22T00:20:07;6.9;100
40528;DHT22;26230;51.268;6.534;2023-12-22T00:30:07;7.0;100
40528;DHT22;26230;51.268;6.534;2023-12-22T00:40:07;7.3;100
40528;DHT22;26230;51.268;6.534;2023-12-22T00:50:07;7.6;100
40528;DHT22;26230;51.268;6.534;2023-12-22T01:00:09;7.6;100
40528;DHT22;26230;51.268;6.534;2023-12-22T01:10:09;7.4;100
40528;DHT22;26230;51.268;6.534;2023-12-22T01:20:07;7.4;100
40528;DHT22;26230;51.268;6.534;2023-12-22T01:30:09;7.5;100
40528;DHT22;26230;51.268;6.534;2023-12-22T01:40:07;7.3;100
40528;DHT22;26230;51.268;6.534;2023-12-22T01:50:07;7.4;100
40528;DHT22;26230;51.268;6.534;2023-12-22T02:00:08;7.4;100
40528;DHT22;26230;51.268;6.534;2023-12-22T02:10:07;7.5;100
40528;DHT22;26230;51.268;6.534;2023-12-22T02:20:07;7.5;100
40528;DHT22;26230;51.268;6.534;2023-12-22T02:40:07;7.6;100
40528;DHT22;26230;51.268;6.534;2023-12-22T02:50:08;7.7;100
40528;DHT22;26230;51.268;6.534;2023-12-22T03:00:07;7.6;100
40528;DHT22;26230;51.268;6.534;2023-12-22T03:10:07;7.6;100
40528;DHT22;26230;51.268;6.534;2023-12-22T03:20:07;7.7;100
40528;DHT22;26230;51.268;6.534;2023-12-22T03:30:07;7.5;100
40528;DHT22;26230;51.268;6.534;2023-12-22T03:40:07;7.6;100
40528;DHT22;26230;51.268;6.534;2023-12-22T03:50:07;7.9;100
40528;DHT22;26230;51.268;6.534;2023-12-22T04:00:07;8.0;100
40528;DHT22;26230;51.268;6.534;2023-12-22T04:10:07;8.0;100
40528;DHT22;26230;51.268;6.534;2023-12-22T04:20:07;8.3;100
40528;DHT22;26230;51.268;6.534;2023-12-22T04:30:07;8.3;100
40528;DHT22;26230;51.268;6.534;2023-12-22T04:40:09;8.4;100
40528;DHT22;26230;51.268;6.534;2023-12-22T04:50:07;8.5;100
40528;DHT22;26230;51.268;6.534;2023-12-22T05:00:09;8.5;100
40528;DHT22;26230;51.268;6.534;2023-12-22T05:10:07;8.7;100
40528;DHT22;26230;51.268;6.534;2023-12-22T05:20:07;8.9;100
40528;DHT22;26230;51.268;6.534;2023-12-22T05:30:07;9.1;100
40528;DHT22;26230;51.268;6.534;2023-12-22T05:40:07;9.2;100
40528;DHT22;26230;51.268;6.534;2023-12-22T05:50:07;9.4;100
40528;DHT22;26230;51.268;6.534;2023-12-22T06:00:07;9.3;100
40528;DHT22;26230;51.268;6.534;2023-12-22T06:10:09;9.4;100
40528;DHT22;26230;51.268;6.534;2023-12-22T06:20:07;9.5;100
40528;DHT22;26230;51.268;6.534;2023-12-22T06:30:07;9.4;100
40528;DHT22;26230;51.268;6.534;2023-12-22T06:40:07;9.5;100
40528;DHT22;26230;51.268;6.534;2023-12-22T06:50:08;9.6;100
40528;DHT22;26230;51.268;6.534;2023-12-22T07:00:07;9.3;100
40528;DHT22;26230;51.268;6.534;2023-12-22T07:10:07;9.2;100
40528;DHT22;26230;51.268;6.534;2023-12-22T07:20:07;9.3;100
40528;DHT22;26230;51.268;6.534;2023-12-22T07:30:08;9.1;100
40528;DHT22;26230;51.268;6.534;2023-12-22T07:40:07;8.6;100
40528;DHT22;26230;51.268;6.534;2023-12-22T07:50:07;8.7;100
40528;DHT22;26230;51.268;6.534;2023-12-22T08:00:07;8.8;100
40528;DHT22;26230;51.268;6.534;2023-12-22T08:10:07;9.1;100
40528;DHT22;26230;51.268;6.534;2023-12-22T08:20:07;9.4;100
40528;DHT22;26230;51.268;6.534;2023-12-22T08:30:08;9.5;100
40528;DHT22;26230;51.268;6.534;2023-12-22T08:40:07;9.7;100
40528;DHT22;26230;51.268;6.534;2023-12-22T08:50:07;9.9;100
40528;DHT22;26230;51.268;6.534;2023-12-22T09:00:07;10.0;100
40528;DHT22;26230;51.268;6.534;2023-12-22T09:10:07;10.1;100
40528;DHT22;26230;51.268;6.534;2023-12-22T09:20:07;10.3;100
40528;DHT22;26230;51.268;6.534;2023-12-22T09:30:07;10.5;100
40528;DHT22;26230;51.268;6.534;2023-12-22T09:40:09;10.5;100
40528;DHT22;26230;51.268;6.534;2023-12-22T09:50:07;10.6;100
40528;DHT22;26230;51.268;6.534;2023-12-22T10:00:09;10.8;100
40528;DHT22;26230;51.268;6.534;2023-12-22T10:10:07;10.8;100
40528;DHT22;26230;51.268;6.534;2023-12-22T10:20:08;10.9;100
40528;DHT22;26230;51.268;6.534;2023-12-22T10:30:09;10.8;100
40528;DHT22;26230;51.268;6.534;2023-12-22T10:40:09;10.8;100
40528;DHT22;26230;51.268;6.534;2023-12-22T10:50:07;10.9;100
40528;DHT22;26230;51.268;6.534;2023-12-22T11:00:07;10.9;100
40528;DHT22;26230;51.268;6.534;2023-12-22T11:10:07;11.1;100
40528;DHT22;26230;51.268;6.534;2023-12-22T11:20:10;11.2;100
40528;DHT22;26230;51.268;6.534;2023-12-22T11:30:07;11.2;100
40528;DHT22;26230;51.268;6.534;2023-12-22T11:40:11;11.2;100
40528;DHT22;26230;51.268;6.534;2023-12-22T11:50:08;11.4;100
40528;DHT22;26230;51.268;6.534;2023-12-22T12:00:07;11.6;100
40528;DHT22;26230;51.268;6.534;2023-12-22T12:10:07;11.7;100
40528;DHT22;26230;51.268;6.534;2023-12-22T12:20:07;11.9;100
40528;DHT22;26230;51.268;6.534;2023-12-22T12:30:09;12.0;100
40528;DHT22;26230;51.268;6.534;2023-12-22T12:40:09;12.0;100
40528;DHT22;26230;51.268;6.534;2023-12-22T12:50:07;12.1;100
40528;DHT22;26230;51.268;6.534;2023-12-22T13:00:08;12.1;100
40528;DHT22;26230;51.268;6.534;2023-12-22T13:10:19;12.1;100
40528;DHT22;26230;51.268;6.534;2023-12-22T13:20:07;12.0;100
40528;DHT22;26230;51.268;6.534;2023-12-22T13:30:07;11.9;100
40528;DHT22;26230;51.268;6.534;2023-12-22T13:40:07;11.9;100
40528;DHT22;26230;51.268;6.534;2023-12-22T13:50:13;12.0;100
40528;DHT22;26230;51.268;6.534;2023-12-22T14:10:07;12.2;100
40528;DHT22;26230;51.268;6.534;2023-12-22T14:20:07;12.1;100
40528;DHT22;26230;51.268;6.534;2023-12-22T14:30:07;11.9;100
40528;DHT22;26230;51.268;6.534;2023-12-22T14:40:07;11.9;100
40528;DHT22;26230;51.268;6.534;2023-12-22T14:50:07;11.9;100
40528;DHT22;26230;51.268;6.534;2023-12-22T15:00:07;11.8;100
40528;DHT22;26230;51.268;6.534;2023-12-22T15:10:07;11.7;100
40528;DHT22;26230;51.268;6.534;2023-12-22T15:20:07;11.6;100
40528;DHT22;26230;51.268;6.534;2023-12-22T15:30:07;11.5;100
40528;DHT22;26230;51.268;6.534;2023-12-22T15:40:07;11.3;100
40528;DHT22;26230;51.268;6.534;2023-12-22T15:50:07;11.3;100
40528;DHT22;26230;51.268;6.534;2023-12-22T16:00:09;11.3;100
40528;DHT22;26230;51.268;6.534;2023-12-22T16:10:07;11.3;100
40528;DHT22;26230;51.268;6.534;2023-12-22T16:20:07;11.0;100
40528;DHT22;26230;51.268;6.534;2023-12-22T16:30:07;10.9;100
40528;DHT22;26230;51.268;6.534;2023-12-22T16:40:07;11.2;100
40528;DHT22;26230;51.268;6.534;2023-12-22T16:50:07;11.4;100
40528;DHT22;26230;51.268;6.534;2023-12-22T17:00:07;11.4;100
40528;DHT22;26230;51.268;6.534;2023-12-22T17:10:07;11.6;100
40528;DHT22;26230;51.268;6.534;2023-12-22T17:20:07;11.8;100
40528;DHT22;26230;51.268;6.534;2023-12-22T17:30:07;11.7;100
40528;DHT22;26230;51.268;6.534;2023-12-22T17:40:07;11.6;100
40528;DHT22;26230;51.268;6.534;2023-12-22T17:50:07;11.9;100
40528;DHT22;26230;51.268;6.534;2023-12-22T18:00:07;11.8;100
40528;DHT22;26230;51.268;6.534;2023-12-22T18:10:09;11.9;100
40528;DHT22;26230;51.268;6.534;2023-12-22T18:20:07;11.7;100
40528;DHT22;26230;51.268;6.534;2023-12-22T18:30:07;11.6;100
40528;DHT22;26230;51.268;6.534;2023-12-22T18:40:07;11.7;100
40528;DHT22;26230;51.268;6.534;2023-12-22T18:50:07;11.6;100
40528;DHT22;26230;51.268;6.534;2023-12-22T19:00:07;11.4;100
40528;DHT22;26230;51.268;6.534;2023-12-22T19:10:07;11.4;100
40528;DHT22;26230;51.268;6.534;2023-12-22T19:20:08;11.7;100
40528;DHT22;26230;51.268;6.534;2023-12-22T19:30:07;11.6;100
40528;DHT22;26230;51.268;6.534;2023-12-22T19:40:07;11.7;100
40528;DHT22;26230;51.268;6.534;2023-12-22T19:50:07;11.8;100
40528;DHT22;26230;51.268;6.534;2023-12-22T20:00:09;11.1;100
40528;DHT22;26230;51.268;6.534;2023-12-22T20:10:07;11.1;100
40528;DHT22;26230;51.268;6.534;2023-12-22T20:20:07;10.6;100
40528;DHT22;26230;51.268;6.534;2023-12-22T20:30:07;10.5;100
40528;DHT22;26230;51.268;6.534;2023-12-22T20:40:07;10.8;100
40528;DHT22;26230;51.268;6.534;2023-12-22T20:50:07;11.0;100
40528;DHT22;26230;51.268;6.534;2023-12-22T21:00:07;10.9;100
40528;DHT22;26230;51.268;6.534;2023-12-22T21:10:10;10.8;100
40528;DHT22;26230;51.268;6.534;2023-12-22T21:20:07;10.9;100
40528;DHT22;26230;51.268;6.534;2023-12-22T21:30:07;10.5;100
40528;DHT22;26230;51.268;6.534;2023-12-22T21:40:09;9.9;100
40528;DHT22;26230;51.268;6.534;2023-12-22T21:50:07;9.6;100
40528;DHT22;26230;51.268;6.534;2023-12-22T22:00:09;9.5;100
40528;DHT22;26230;51.268;6.534;2023-12-22T22:10:07;9.5;100
40528;DHT22;26230;51.268;6.534;2023-12-22T22:20:07;9.5;100
40528;DHT22;26230;51.268;6.534;2023-12-22T22:30:07;9.4;100
40528;DHT22;26230;51.268;6.534;2023-12-22T22:40:07;9.4;100
40528;DHT22;26230;51.268;6.534;2023-12-22T22:50:07;9.5;100
40528;DHT22;26230;51.268;6.534;2023-12-22T23:00:07;9.5;100
40528;DHT22;26230;51.268;6.534;2023-12-22T23:10:07;9.5;100
40528;DHT22;26230;51.268;6.534;2023-12-22T23:20:07;9.6;100
40528;DHT22;26230;51.268;6.534;2023-12-22T23:30:07;9.5;100
40528;DHT22;26230;51.268;6.534;2023-12-22T23:40:07;9.6;100
40528;DHT22;26230;51.268;6.534;2023-12-22T23:50:07;9.6;100
